Time;durP1;ratioP1;P1;durP2;ratioP2;P2;SDS_P1;SDS_P2;PMS_P1;PMS_P2;Temp;Humidity;BMP_temperature;BMP_pressure;BME280_temperature;BME280_humidity;BME280_pressure;Samples;Min_cycle;Max_cycle;Signal;HPM_P1;HPM_P2
2023/04/28 00:01:15;;;;;;;4.68;2.30;;;;;;;7.47;43.28;94993.41;5065642;28;20052;-71
2023/04/28 00:03:41;;;;;;;5.85;2.60;;;;;;;7.47;43.25;94995.19;5054998;28;20052;-70
2023/04/28 00:06:06;;;;;;;3.38;2.75;;;;;;;7.46;43.36;94993.50;5057188;28;20032;-70
2023/04/28 00:08:32;;;;;;;3.97;2.40;;;;;;;7.43;43.15;95004.88;5074871;28;20098;-70
2023/04/28 00:10:57;;;;;;;7.03;2.40;;;;;;;7.30;44.27;95002.31;5091605;28;20042;-71
2023/04/28 00:13:23;;;;;;;5.28;3.22;;;;;;;7.28;43.87;95003.34;5092874;28;20034;-71
2023/04/28 00:15:49;;;;;;;6.22;3.30;;;;;;;7.30;43.89;95004.03;5068917;28;20032;-70
2023/04/28 00:18:14;;;;;;;5.20;2.40;;;;;;;7.24;43.82;95001.88;5062763;28;20059;-70
2023/04/28 00:20:40;;;;;;;4.95;2.63;;;;;;;7.03;43.94;94997.22;5072245;28;20538;-70
2023/04/28 00:23:05;;;;;;;5.43;2.47;;;;;;;7.16;44.04;94998.06;5037788;28;20032;-70
2023/04/28 00:25:31;;;;;;;12.75;2.78;;;;;;;7.13;43.92;95008.59;5067532;28;20032;-70
2023/04/28 00:27:56;;;;;;;4.82;2.70;;;;;;;7.05;44.45;95003.09;5078561;28;20044;-70
2023/04/28 00:30:24;;;;;;;6.22;2.80;;;;;;;7.07;44.06;94996.06;5038592;28;20043;-70
2023/04/28 00:32:49;;;;;;;4.07;2.20;;;;;;;6.99;44.27;95011.22;5055955;28;20024;-70
2023/04/28 00:35:15;;;;;;;7.47;2.67;;;;;;;6.94;45.21;95008.97;5086632;28;20037;-70
2023/04/28 00:37:40;;;;;;;5.97;2.85;;;;;;;6.86;44.66;95000.06;5072120;28;20382;-70
2023/04/28 00:40:06;;;;;;;5.65;2.83;;;;;;;6.97;44.21;95017.47;5049755;28;20035;-70
2023/04/28 00:42:31;;;;;;;3.90;2.67;;;;;;;6.89;45.47;95010.19;5091522;28;20056;-70
2023/04/28 00:44:57;;;;;;;4.30;2.60;;;;;;;6.90;44.98;95014.44;5073863;28;20021;-70
2023/04/28 00:47:22;;;;;;;4.38;2.72;;;;;;;6.78;45.07;95004.91;5091298;28;20044;-70
2023/04/28 00:49:48;;;;;;;6.68;2.88;;;;;;;6.74;45.12;95008.59;5074050;28;20024;-70
2023/04/28 00:52:14;;;;;;;4.20;2.80;;;;;;;6.70;45.23;95013.13;5056776;28;20531;-70
2023/04/28 00:54:39;;;;;;;4.18;2.88;;;;;;;6.65;45.03;95002.28;5091876;28;20036;-70
2023/04/28 00:57:04;;;;;;;4.20;2.90;;;;;;;6.69;45.08;95009.72;5073577;28;20024;-70
2023/04/28 00:59:30;;;;;;;4.35;2.50;;;;;;;6.60;45.47;95010.34;5091786;28;20039;-70
2023/04/28 01:01:55;;;;;;;5.03;2.83;;;;;;;6.49;45.64;95008.44;5041469;28;20041;-70
2023/04/28 01:04:21;;;;;;;3.50;2.60;;;;;;;6.30;46.68;94981.31;5053954;28;20118;-72
2023/04/28 01:06:47;;;;;;;4.03;2.70;;;;;;;6.35;48.15;95017.94;5053568;28;20029;-70
2023/04/28 01:09:12;;;;;;;4.68;2.60;;;;;;;5.82;49.56;95000.53;5068408;28;20044;-71
2023/04/28 01:11:38;;;;;;;5.95;2.72;;;;;;;6.05;48.86;95026.69;5073221;28;20023;-70
2023/04/28 01:14:03;;;;;;;4.47;2.65;;;;;;;6.05;47.58;95029.28;5073588;28;20036;-70
2023/04/28 01:16:31;;;;;;;3.47;2.50;;;;;;;6.03;47.01;95013.88;5091728;28;20028;-70
2023/04/28 01:18:56;;;;;;;4.28;2.70;;;;;;;6.09;46.82;95024.75;5073288;28;20028;-70
2023/04/28 01:21:27;;;;;;;3.83;2.30;;;;;;;5.91;47.78;95003.47;5056669;28;20034;-70
2023/04/28 01:23:54;;;;;;;5.75;2.55;;;;;;;5.88;48.75;95027.69;5074030;28;20032;-71
2023/04/28 01:26:20;;;;;;;4.97;2.55;;;;;;;5.76;49.25;95015.53;5073262;28;20119;-72
2023/04/28 01:28:45;;;;;;;4.75;3.00;;;;;;;5.94;48.63;95031.69;5091690;28;20081;-70
2023/04/28 01:31:10;;;;;;;4.32;2.50;;;;;;;5.92;47.69;95041.22;5073239;28;20559;-70
2023/04/28 01:33:36;;;;;;;5.22;2.60;;;;;;;5.87;48.72;95043.25;5073413;28;20478;-70
2023/04/28 01:36:01;;;;;;;5.10;2.50;;;;;;;5.44;49.36;94997.69;5089958;28;20482;-70
2023/04/28 01:38:27;;;;;;;3.50;2.30;;;;;;;5.55;50.46;95036.53;5070923;28;20036;-71
2023/04/28 01:40:54;;;;;;;3.83;2.40;;;;;;;5.62;50.30;95031.00;5072926;28;20043;-70
2023/04/28 01:43:19;;;;;;;4.22;2.17;;;;;;;5.57;49.93;95041.56;5072808;28;20035;-71
2023/04/28 01:45:45;;;;;;;5.50;2.63;;;;;;;5.52;48.75;95036.72;5071952;28;20028;-72
2023/04/28 01:48:10;;;;;;;6.13;2.45;;;;;;;5.35;48.75;95037.72;5091506;28;20032;-72
2023/04/28 01:50:36;;;;;;;4.30;2.55;;;;;;;5.20;51.00;95019.75;5071449;28;20032;-70
2023/04/28 01:53:01;;;;;;;4.07;2.30;;;;;;;4.99;51.72;95032.13;5073018;28;20555;-70
2023/04/28 01:55:26;;;;;;;4.40;2.22;;;;;;;5.10;50.46;95037.50;5061289;28;20490;-71
2023/04/28 01:57:52;;;;;;;4.22;2.90;;;;;;;4.99;51.57;95037.28;5073574;28;20595;-71
2023/04/28 02:00:17;;;;;;;4.40;2.53;;;;;;;5.00;50.32;95041.50;5094988;28;20035;-70
2023/04/28 02:02:43;;;;;;;4.45;2.83;;;;;;;4.81;51.45;95037.38;5063222;28;20036;-70
2023/04/28 02:05:08;;;;;;;3.10;2.38;;;;;;;4.69;52.90;95031.19;5070748;28;20517;-70
2023/04/28 02:07:34;;;;;;;4.95;2.75;;;;;;;4.70;53.99;95038.00;5076551;28;20502;-70
2023/04/28 02:09:59;;;;;;;5.13;2.70;;;;;;;4.13;54.63;94996.59;5077054;28;20036;-70
2023/04/28 02:12:25;;;;;;;5.90;2.88;;;;;;;4.32;54.34;95041.84;5095043;28;20024;-69
2023/04/28 02:14:50;;;;;;;5.20;2.30;;;;;;;4.42;54.43;95043.84;5094580;28;20046;-70
2023/04/28 02:17:16;;;;;;;4.05;2.38;;;;;;;4.31;54.92;95041.03;5085975;28;20035;-71
2023/04/28 02:19:41;;;;;;;3.67;2.58;;;;;;;3.95;55.48;95029.25;5066542;28;20071;-70
2023/04/28 02:22:06;;;;;;;4.80;3.00;;;;;;;4.16;55.15;95040.13;5079043;28;20050;-70
2023/04/28 02:24:36;;;;;;;5.60;2.50;;;;;;;4.04;55.19;95038.22;5094768;28;20506;-70
2023/04/28 02:27:02;;;;;;;4.25;2.40;;;;;;;4.04;55.54;95022.81;5060438;28;20020;-71
2023/04/28 02:29:29;;;;;;;5.45;2.90;;;;;;;4.18;54.86;95048.59;5060039;28;20118;-72
2023/04/28 02:31:54;;;;;;;4.55;2.45;;;;;;;4.04;54.68;95056.22;5076077;28;20076;-70
2023/04/28 02:34:20;;;;;;;5.35;2.55;;;;;;;3.85;56.30;95058.94;5093545;28;20044;-70
2023/04/28 02:36:47;;;;;;;5.50;2.55;;;;;;;3.87;55.75;95053.69;5076212;28;20031;-71
2023/04/28 02:39:12;;;;;;;4.28;2.67;;;;;;;3.88;56.84;95061.34;5094444;28;20035;-70
2023/04/28 02:41:38;;;;;;;4.28;2.20;;;;;;;3.85;56.40;95060.69;5093988;28;20028;-70
2023/04/28 02:44:03;;;;;;;4.30;2.47;;;;;;;3.73;56.41;95062.97;5076418;28;20089;-70
2023/04/28 02:46:29;;;;;;;4.82;2.60;;;;;;;3.70;55.82;95072.56;5075929;28;20039;-71
2023/04/28 02:48:55;;;;;;;3.65;2.80;;;;;;;3.50;55.51;95032.50;5075360;28;20402;-71
2023/04/28 02:51:20;;;;;;;4.15;2.55;;;;;;;3.78;57.00;95065.28;5075709;28;20033;-72
2023/04/28 02:53:46;;;;;;;3.70;2.63;;;;;;;3.70;58.42;95052.00;5076206;28;20111;-72
2023/04/28 02:56:11;;;;;;;6.63;3.15;;;;;;;3.71;56.65;95067.38;5075951;28;20027;-71
2023/04/28 02:58:37;;;;;;;4.55;2.80;;;;;;;3.54;57.76;95075.94;5093438;28;20035;-72
2023/04/28 03:01:02;;;;;;;4.43;2.80;;;;;;;3.43;58.57;95073.09;5093928;28;20028;-71
2023/04/28 03:03:27;;;;;;;4.47;2.95;;;;;;;3.60;58.93;95076.53;5075921;28;20109;-71
2023/04/28 03:05:55;;;;;;;4.88;3.00;;;;;;;3.37;58.58;95065.66;5092982;28;20057;-72
2023/04/28 03:08:21;;;;;;;4.32;2.85;;;;;;;3.57;58.18;95080.09;5075540;28;20051;-71
2023/04/28 03:10:46;;;;;;;6.70;2.95;;;;;;;3.56;57.61;95070.69;5058440;28;20449;-71
2023/04/28 03:13:12;;;;;;;5.15;3.00;;;;;;;3.50;57.12;95076.16;5075743;28;20028;-71
2023/04/28 03:15:37;;;;;;;5.88;2.97;;;;;;;3.44;57.14;95087.56;5075056;28;20040;-71
2023/04/28 03:18:02;;;;;;;4.97;2.70;;;;;;;3.34;56.98;95058.13;5074251;28;20085;-71
2023/04/28 03:20:28;;;;;;;3.80;2.83;;;;;;;3.08;58.75;95049.16;5073313;28;20024;-71
2023/04/28 03:22:53;;;;;;;6.35;2.90;;;;;;;3.30;58.77;95072.88;5093663;28;20035;-71
2023/04/28 03:25:19;;;;;;;4.90;2.67;;;;;;;3.41;57.06;95095.44;5093460;28;20031;-71
2023/04/28 03:27:45;;;;;;;4.80;2.95;;;;;;;3.58;57.81;95097.97;5075315;28;20031;-72
2023/04/28 03:30:10;;;;;;;6.15;2.97;;;;;;;3.47;59.38;95100.25;5093328;28;20509;-71
2023/04/28 03:32:36;;;;;;;6.55;3.25;;;;;;;3.39;58.11;95104.94;5092199;28;20028;-71
2023/04/28 03:35:01;;;;;;;6.03;2.88;;;;;;;3.50;58.71;95112.94;5075294;28;20032;-72
2023/04/28 03:37:27;;;;;;;4.55;2.75;;;;;;;3.49;57.62;95089.94;5074131;28;20494;-71
2023/04/28 03:39:52;;;;;;;5.00;2.90;;;;;;;3.58;57.44;95108.25;5074889;28;20032;-71
2023/04/28 03:42:18;;;;;;;5.70;3.35;;;;;;;3.63;58.40;95114.91;5075061;28;20032;-71
2023/04/28 03:44:43;;;;;;;5.60;3.63;;;;;;;3.58;58.34;95113.41;5092494;28;20036;-71
2023/04/28 03:47:09;;;;;;;5.40;3.22;;;;;;;3.57;58.88;95123.75;5074733;28;20030;-71
2023/04/28 03:49:34;;;;;;;4.25;2.60;;;;;;;3.70;58.04;95111.09;5071048;28;20093;-71
2023/04/28 03:52:00;;;;;;;5.13;2.83;;;;;;;3.82;56.99;95123.34;5064854;28;20032;-72
2023/04/28 03:54:25;;;;;;;5.45;2.80;;;;;;;3.75;56.96;95130.53;5054832;28;20029;-71
2023/04/28 03:56:51;;;;;;;5.82;2.90;;;;;;;3.80;58.31;95138.84;5067900;28;20040;-72
2023/04/28 03:59:16;;;;;;;4.15;2.63;;;;;;;3.92;57.72;95136.53;5071984;28;20036;-71
2023/04/28 04:01:42;;;;;;;3.50;2.47;;;;;;;3.86;57.29;95127.41;5054401;28;20036;-72
2023/04/28 04:04:07;;;;;;;5.05;2.72;;;;;;;3.98;57.79;95146.50;5074053;28;20048;-72
2023/04/28 04:06:33;;;;;;;4.40;2.85;;;;;;;3.99;56.83;95146.44;5057670;28;20024;-72
2023/04/28 04:08:59;;;;;;;7.30;3.42;;;;;;;4.08;56.45;95155.41;5057630;28;20066;-71
2023/04/28 04:11:24;;;;;;;5.05;2.90;;;;;;;4.10;58.61;95157.91;5074356;28;20401;-71
2023/04/28 04:13:50;;;;;;;5.95;3.13;;;;;;;4.31;56.51;95171.38;5057583;28;20028;-72
2023/04/28 04:16:15;;;;;;;4.30;3.15;;;;;;;4.60;56.48;95150.09;5061697;28;20035;-72
2023/04/28 04:18:41;;;;;;;8.63;4.82;;;;;;;5.01;55.12;95159.03;5074683;28;20444;-72
2023/04/28 04:21:06;;;;;;;5.80;3.38;;;;;;;5.55;54.30;95157.66;5073183;28;20115;-72
2023/04/28 04:23:32;;;;;;;8.45;4.63;;;;;;;5.73;51.49;95117.09;5089188;28;20039;-71
2023/04/28 04:25:57;;;;;;;14.00;7.93;;;;;;;6.54;50.09;95160.41;5054275;28;20037;-71
2023/04/28 04:28:22;;;;;;;14.48;10.88;;;;;;;7.34;47.59;95155.41;5054293;28;20409;-72
2023/04/28 04:30:48;;;;;;;7.47;5.30;;;;;;;8.19;45.31;95145.44;5067911;28;20383;-71
2023/04/28 04:33:17;;;;;;;8.63;4.18;;;;;;;9.20;42.68;95147.94;5090388;28;20031;-71
2023/04/28 04:35:42;;;;;;;8.27;3.70;;;;;;;9.57;40.00;95156.47;5057980;28;20097;-69
2023/04/28 04:38:08;;;;;;;6.10;5.30;;;;;;;10.58;38.73;95159.25;5056106;28;20085;-70
2023/04/28 04:40:33;;;;;;;5.07;3.08;;;;;;;11.61;35.64;95156.28;5090226;28;20398;-70
2023/04/28 04:42:59;;;;;;;7.43;3.95;;;;;;;12.42;33.38;95164.38;5083779;28;20032;-70
2023/04/28 04:45:25;;;;;;;5.05;2.90;;;;;;;13.50;31.70;95158.53;5078405;28;20024;-70
2023/04/28 04:47:51;;;;;;;5.30;2.95;;;;;;;14.97;28.80;95160.75;5069275;28;20036;-70
2023/04/28 04:50:17;;;;;;;8.45;5.00;;;;;;;16.02;27.40;95161.97;5056401;28;20028;-71
2023/04/28 04:52:42;;;;;;;4.55;3.42;;;;;;;16.94;25.74;95150.91;5039142;28;20094;-71
2023/04/28 04:55:10;;;;;;;5.25;3.40;;;;;;;17.56;25.23;95157.66;5069861;28;20430;-72
2023/04/28 04:57:35;;;;;;;8.50;3.75;;;;;;;18.28;23.97;95152.63;5072820;28;20035;-72
2023/04/28 05:00:01;;;;;;;4.63;3.05;;;;;;;18.56;23.29;95160.16;5090154;28;20047;-72
2023/04/28 05:02:26;;;;;;;5.68;3.10;;;;;;;19.18;22.32;95155.84;5088119;28;20503;-72
2023/04/28 05:04:52;;;;;;;4.43;2.90;;;;;;;19.06;22.62;95162.50;5085716;28;20391;-74
2023/04/28 05:07:18;;;;;;;5.20;3.63;;;;;;;18.00;24.00;95165.28;5087058;28;20418;-75
2023/04/28 05:09:43;;;;;;;5.20;3.08;;;;;;;16.71;25.14;95168.13;5091113;28;20039;-72
2023/04/28 05:12:09;;;;;;;6.47;3.15;;;;;;;15.56;26.51;95177.72;5073796;28;20032;-72
2023/04/28 05:14:34;;;;;;;5.13;3.30;;;;;;;14.91;27.69;95179.63;5059580;28;20024;-71
2023/04/28 05:16:59;;;;;;;6.07;4.30;;;;;;;14.48;28.17;95173.13;5089106;28;20035;-72
2023/04/28 05:19:25;;;;;;;7.78;3.83;;;;;;;13.89;29.04;95169.00;5072925;28;20031;-71
2023/04/28 05:21:53;;;;;;;8.52;3.95;;;;;;;13.52;29.96;95174.91;5067885;28;20058;-71
2023/04/28 05:24:23;;;;;;;7.43;3.55;;;;;;;13.39;30.31;95173.34;5051864;28;20039;-72
2023/04/28 05:26:52;;;;;;;8.95;3.58;;;;;;;13.18;30.45;95164.81;5065071;28;20061;-71
2023/04/28 05:29:18;;;;;;;12.40;6.05;;;;;;;12.67;31.36;95183.97;5089465;28;20032;-71
2023/04/28 05:31:44;;;;;;;7.72;2.95;;;;;;;12.49;31.25;95187.19;5068297;28;20016;-71
2023/04/28 05:34:09;;;;;;;7.00;3.40;;;;;;;12.08;32.62;95170.63;5073020;28;20040;-71
2023/04/28 05:36:35;;;;;;;5.75;3.28;;;;;;;12.33;32.67;95183.41;5075500;28;20024;-72
2023/04/28 05:39:00;;;;;;;7.13;3.50;;;;;;;12.08;33.06;95186.25;5049107;28;20067;-71
2023/04/28 05:41:26;;;;;;;5.05;3.70;;;;;;;11.79;33.92;95178.22;5042855;28;20041;-71
2023/04/28 05:43:51;;;;;;;6.97;4.13;;;;;;;11.81;33.93;95180.69;5044886;28;20407;-71
2023/04/28 05:46:17;;;;;;;5.18;3.20;;;;;;;11.81;33.74;95188.50;5060914;28;20032;-72
2023/04/28 05:48:42;;;;;;;7.13;3.53;;;;;;;11.46;34.07;95192.19;5076796;28;20513;-71
2023/04/28 05:51:08;;;;;;;6.57;3.47;;;;;;;11.49;33.66;95183.31;5062058;28;20043;-71
2023/04/28 05:53:33;;;;;;;7.35;3.80;;;;;;;11.60;34.08;95178.91;5072103;28;20032;-71
2023/04/28 05:55:59;;;;;;;10.20;3.65;;;;;;;11.68;34.48;95186.09;5071945;28;20028;-74
2023/04/28 05:58:24;;;;;;;6.80;3.80;;;;;;;11.70;34.46;95185.94;5055253;28;20024;-74
2023/04/28 06:00:50;;;;;;;9.45;3.33;;;;;;;11.45;34.57;95195.75;5071487;28;20027;-72
2023/04/28 06:03:17;;;;;;;10.07;4.38;;;;;;;11.47;34.35;95186.03;5083471;28;20044;-72
2023/04/28 06:05:44;;;;;;;7.00;4.68;;;;;;;11.15;34.36;95189.44;5070504;28;20027;-71
2023/04/28 06:08:09;;;;;;;7.82;3.92;;;;;;;11.30;34.74;95189.97;5073342;28;20040;-72
2023/04/28 06:10:35;;;;;;;4.93;3.40;;;;;;;11.21;35.02;95180.31;5067750;28;20415;-72
2023/04/28 06:13:01;;;;;;;5.65;3.75;;;;;;;11.31;34.72;95170.84;5052000;28;20063;-72
2023/04/28 06:15:26;;;;;;;6.22;3.42;;;;;;;11.40;34.68;95185.72;5083576;28;20490;-71
2023/04/28 06:17:52;;;;;;;8.55;3.88;;;;;;;11.35;35.04;95177.44;5043834;28;20040;-71
2023/04/28 06:20:18;;;;;;;5.32;3.70;;;;;;;11.44;35.06;95173.28;5103334;28;20359;-72
2023/04/28 06:22:43;;;;;;;4.90;3.13;;;;;;;11.73;33.47;95189.16;5055433;28;20030;-71
2023/04/28 06:25:09;;;;;;;6.97;3.53;;;;;;;11.71;33.01;95188.44;5061702;28;20048;-71
2023/04/28 06:27:34;;;;;;;8.45;4.43;;;;;;;11.59;33.21;95185.06;5073929;28;20047;-72
2023/04/28 06:30:00;;;;;;;6.15;3.63;;;;;;;11.44;33.38;95178.47;5070281;28;20051;-72
2023/04/28 06:32:25;;;;;;;8.45;3.35;;;;;;;11.60;34.00;95202.31;5078593;28;20020;-72
2023/04/28 06:34:50;;;;;;;5.25;3.20;;;;;;;11.70;33.93;95192.00;5071050;28;20040;-72
2023/04/28 06:37:17;;;;;;;5.55;3.22;;;;;;;11.81;33.23;95178.94;5043990;28;20039;-72
2023/04/28 06:39:43;;;;;;;13.07;5.40;;;;;;;12.00;33.36;95180.03;5079667;28;20036;-72
2023/04/28 06:42:08;;;;;;;6.72;3.38;;;;;;;12.17;33.10;95189.88;5070654;28;20097;-73
2023/04/28 06:44:34;;;;;;;6.63;3.13;;;;;;;12.24;33.79;95190.22;5056343;28;20558;-74
2023/04/28 06:46:59;;;;;;;4.22;2.92;;;;;;;12.46;32.77;95189.25;5058024;28;20769;-73
2023/04/28 06:49:25;;;;;;;5.75;3.28;;;;;;;12.58;32.92;95177.75;5039386;28;20532;-73
2023/04/28 06:51:54;;;;;;;6.18;3.55;;;;;;;12.76;31.34;95175.38;5080855;28;20576;-73
2023/04/28 06:54:20;;;;;;;6.38;3.58;;;;;;;12.65;31.91;95172.88;5068208;28;20124;-74
2023/04/28 06:56:45;;;;;;;9.52;3.65;;;;;;;12.74;31.16;95169.47;5079395;28;20028;-73
2023/04/28 06:59:11;;;;;;;9.60;3.90;;;;;;;12.74;30.67;95174.69;5055805;28;20418;-73
2023/04/28 07:01:36;;;;;;;6.07;3.28;;;;;;;12.63;31.08;95169.56;5065891;28;20027;-74
2023/04/28 07:04:02;;;;;;;4.82;3.33;;;;;;;12.66;30.83;95180.53;5050268;28;20032;-74
2023/04/28 07:06:28;;;;;;;6.93;3.20;;;;;;;12.66;31.12;95184.94;5078719;28;20453;-74
2023/04/28 07:08:54;;;;;;;10.00;3.58;;;;;;;12.78;31.33;95183.88;5075333;28;20028;-74
2023/04/28 07:11:20;;;;;;;6.05;3.05;;;;;;;12.64;32.02;95174.63;5068948;28;20041;-73
2023/04/28 07:13:48;;;;;;;10.35;3.78;;;;;;;12.76;31.45;95183.22;5053984;28;20028;-74
2023/04/28 07:16:13;;;;;;;7.45;3.63;;;;;;;12.65;32.17;95158.06;5057985;28;20533;-74
2023/04/28 07:18:39;;;;;;;6.28;3.05;;;;;;;12.94;31.41;95181.59;5045330;28;20031;-73
2023/04/28 07:21:05;;;;;;;6.95;3.08;;;;;;;13.05;31.00;95170.25;5081325;28;20090;-74
2023/04/28 07:23:30;;;;;;;5.03;2.95;;;;;;;13.11;29.54;95171.50;5084479;28;20031;-74
2023/04/28 07:25:57;;;;;;;6.15;2.80;;;;;;;13.01;30.33;95173.25;5064932;28;20032;-73
2023/04/28 07:28:22;;;;;;;6.82;3.20;;;;;;;13.10;30.58;95168.06;5087914;28;20431;-74
2023/04/28 07:30:47;;;;;;;4.68;3.10;;;;;;;13.30;30.24;95171.56;5088737;28;20032;-74
2023/04/28 07:33:13;;;;;;;17.33;5.13;;;;;;;13.37;29.90;95172.69;5076980;28;20547;-73
2023/04/28 07:35:38;;;;;;;19.13;5.05;;;;;;;13.44;29.78;95169.53;5091753;28;20028;-72
2023/04/28 07:38:04;;;;;;;7.72;3.75;;;;;;;13.36;30.14;95154.56;5090444;28;20024;-72
2023/04/28 07:40:30;;;;;;;5.22;3.03;;;;;;;13.49;30.47;95169.97;5057682;28;20418;-72
2023/04/28 07:42:56;;;;;;;7.03;2.70;;;;;;;13.56;30.25;95158.81;5074849;28;20039;-71
2023/04/28 07:45:21;;;;;;;4.57;2.80;;;;;;;13.60;30.11;95164.59;5085222;28;20477;-73
2023/04/28 07:47:47;;;;;;;5.70;2.85;;;;;;;13.60;30.85;95169.81;5088776;28;20024;-73
2023/04/28 07:50:12;;;;;;;6.45;2.78;;;;;;;13.74;29.96;95171.22;5090032;28;20039;-73
2023/04/28 07:52:38;;;;;;;5.60;3.38;;;;;;;13.45;29.04;95172.00;5088350;28;20035;-72
2023/04/28 07:55:04;;;;;;;5.38;2.95;;;;;;;13.48;29.30;95171.72;5062158;28;20486;-72
2023/04/28 07:57:30;;;;;;;5.78;2.75;;;;;;;13.45;29.83;95158.94;5090189;28;20024;-73
2023/04/28 07:59:55;;;;;;;4.85;2.65;;;;;;;13.65;29.04;95149.38;5052598;28;20089;-73
2023/04/28 08:02:21;;;;;;;5.72;2.90;;;;;;;13.82;30.02;95155.69;5088866;28;20060;-73
2023/04/28 08:04:46;;;;;;;5.60;3.10;;;;;;;13.93;29.58;95159.91;5039589;28;20036;-73
2023/04/28 08:07:12;;;;;;;5.10;2.78;;;;;;;13.93;29.57;95152.91;5080740;28;20035;-73
2023/04/28 08:09:39;;;;;;;4.47;2.90;;;;;;;14.10;28.67;95159.22;5079660;28;20058;-73
2023/04/28 08:12:05;;;;;;;6.80;3.40;;;;;;;13.48;29.33;95156.06;5043019;28;20097;-73
2023/04/28 08:14:30;;;;;;;4.28;2.92;;;;;;;13.68;29.83;95151.69;5090308;28;20024;-73
2023/04/28 08:16:56;;;;;;;5.75;2.97;;;;;;;12.49;30.53;95147.28;5058160;28;20127;-73
2023/04/28 08:19:21;;;;;;;6.85;3.53;;;;;;;12.96;31.13;95158.84;5069793;28;20043;-73
2023/04/28 08:21:47;;;;;;;5.63;3.22;;;;;;;13.26;30.10;95162.38;5092072;28;20031;-73
2023/04/28 08:24:12;;;;;;;6.63;3.40;;;;;;;13.35;29.75;95164.16;5072754;28;20494;-73
2023/04/28 08:26:38;;;;;;;6.30;3.08;;;;;;;13.33;30.15;95158.25;5079916;28;20945;-74
2023/04/28 08:29:03;;;;;;;4.70;3.10;;;;;;;12.87;30.20;95130.13;5072324;28;20035;-73
2023/04/28 08:31:29;;;;;;;6.25;3.22;;;;;;;13.08;29.84;95148.31;5090346;28;20024;-73
2023/04/28 08:33:54;;;;;;;6.45;3.03;;;;;;;13.27;30.94;95155.38;5070357;28;20035;-73
2023/04/28 08:36:20;;;;;;;5.10;3.33;;;;;;;13.54;29.72;95139.03;5055019;28;20529;-73
2023/04/28 08:38:46;;;;;;;5.38;2.97;;;;;;;13.82;31.15;95146.06;5089361;28;20414;-74
2023/04/28 08:41:13;;;;;;;7.38;3.50;;;;;;;14.10;30.12;95146.16;5068863;28;20036;-74
2023/04/28 08:43:41;;;;;;;4.93;2.90;;;;;;;14.26;29.98;95146.41;5048793;28;20550;-73
2023/04/28 08:46:07;;;;;;;3.88;2.72;;;;;;;14.41;29.67;95143.31;5069075;28;20062;-73
2023/04/28 08:48:43;;;;;;;5.97;2.83;;;;;;;14.50;28.70;95132.81;5070401;28;20467;-73
2023/04/28 08:51:10;;;;;;;5.28;2.85;;;;;;;14.64;28.20;95149.88;5074040;28;20387;-73
2023/04/28 08:53:36;;;;;;;5.82;3.05;;;;;;;14.66;28.24;95147.94;5072122;28;20028;-73
2023/04/28 08:56:02;;;;;;;4.45;2.88;;;;;;;14.73;28.57;95148.19;5090465;28;20040;-73
2023/04/28 08:58:28;;;;;;;5.28;3.42;;;;;;;14.88;27.82;95127.63;5070011;28;20035;-74
2023/04/28 09:00:54;;;;;;;4.35;2.80;;;;;;;14.90;27.25;95129.09;5091930;28;20032;-73
2023/04/28 09:03:19;;;;;;;14.55;5.45;;;;;;;14.73;28.46;95135.09;5074559;28;20060;-73
2023/04/28 09:05:45;;;;;;;5.07;3.42;;;;;;;14.02;28.94;95132.97;5044177;28;20024;-73
2023/04/28 09:08:11;;;;;;;4.90;3.55;;;;;;;13.90;29.33;95123.63;5044214;28;20032;-73
2023/04/28 09:10:37;;;;;;;7.40;3.30;;;;;;;14.15;29.05;95127.44;5032191;28;20033;-73
2023/04/28 09:13:02;;;;;;;5.75;3.40;;;;;;;13.75;30.07;95121.44;5028747;28;20490;-73
2023/04/28 09:15:35;;;;;;;5.78;3.33;;;;;;;14.08;29.77;95121.94;5046033;28;20033;-73
2023/04/28 09:18:02;;;;;;;5.18;3.35;;;;;;;14.21;28.46;95122.47;5045738;28;20096;-73
2023/04/28 09:20:28;;;;;;;6.70;3.28;;;;;;;14.23;28.43;95115.31;5029311;28;20025;-73
2023/04/28 09:22:54;;;;;;;5.93;3.70;;;;;;;13.82;29.21;95106.06;5029752;28;20124;-73
2023/04/28 09:25:21;;;;;;;4.47;3.15;;;;;;;13.98;28.80;95110.69;5031493;28;20025;-73
2023/04/28 09:27:47;;;;;;;6.85;3.20;;;;;;;14.14;28.90;95108.31;5064423;28;20025;-73
2023/04/28 09:30:13;;;;;;;7.43;3.75;;;;;;;13.49;29.73;95091.66;5030803;28;20087;-73
2023/04/28 09:32:38;;;;;;;6.28;3.10;;;;;;;13.87;29.13;95093.38;5031432;28;20091;-73
2023/04/28 09:35:06;;;;;;;6.60;3.22;;;;;;;14.07;28.83;95115.09;5030358;28;20039;-73
2023/04/28 09:37:32;;;;;;;4.93;3.03;;;;;;;14.22;29.16;95092.75;5047492;28;20044;-73
2023/04/28 09:40:07;;;;;;;6.40;3.13;;;;;;;13.86;29.12;95095.19;5065033;28;20461;-73
2023/04/28 09:42:37;;;;;;;5.28;3.13;;;;;;;14.35;29.03;95091.59;5048599;28;20051;-75
2023/04/28 09:45:07;;;;;;;6.73;3.23;;;;;;;14.04;28.30;95066.56;5050134;28;20037;-72
2023/04/28 09:47:34;;;;;;;7.38;3.47;;;;;;;14.07;28.41;95083.75;5058422;28;20121;-72
2023/04/28 09:50:01;;;;;;;6.97;3.00;;;;;;;14.28;28.61;95089.56;5058436;28;20094;-72
2023/04/28 09:52:27;;;;;;;6.68;3.03;;;;;;;14.52;29.08;95076.03;5052692;28;20036;-73
2023/04/28 09:54:54;;;;;;;5.40;3.10;;;;;;;14.69;28.58;95081.47;5065565;28;20048;-71
2023/04/28 09:57:20;;;;;;;4.82;3.00;;;;;;;14.44;28.46;95041.09;5050513;28;20029;-72
2023/04/28 09:59:52;;;;;;;5.75;3.05;;;;;;;14.73;28.05;95074.97;5049455;28;20029;-73
2023/04/28 10:02:19;;;;;;;4.82;2.95;;;;;;;14.70;27.89;95065.63;5049129;28;20045;-73
2023/04/28 10:04:45;;;;;;;16.00;9.07;;;;;;;14.73;27.42;95062.72;5049254;28;20043;-72
2023/04/28 10:07:12;;;;;;;5.22;3.65;;;;;;;14.72;28.22;95068.09;5056363;28;20058;-72
2023/04/28 10:09:38;;;;;;;5.78;2.88;;;;;;;14.83;27.67;95069.69;5070906;28;20214;-72
2023/04/28 10:12:04;;;;;;;4.10;2.58;;;;;;;14.69;27.32;95050.91;5069234;28;20040;-73
2023/04/28 10:14:30;;;;;;;4.47;2.65;;;;;;;14.80;28.08;95047.28;5052687;28;20119;-73
2023/04/28 10:16:57;;;;;;;7.35;2.80;;;;;;;14.98;28.62;95031.59;5052528;28;20104;-72
2023/04/28 10:19:22;;;;;;;4.20;2.72;;;;;;;14.94;28.11;95051.19;5052756;28;20128;-71
2023/04/28 10:21:56;;;;;;;5.88;3.50;;;;;;;14.75;28.74;95052.94;5072720;28;20032;-72
2023/04/28 10:24:25;;;;;;;8.15;2.95;;;;;;;14.94;27.39;95049.38;5073140;28;20044;-72
2023/04/28 10:27:07;;;;;;;9.07;2.80;;;;;;;14.86;27.20;95043.25;5073152;28;20029;-72
2023/04/28 10:29:32;;;;;;;5.10;3.33;;;;;;;14.68;28.04;95032.75;5056443;28;20036;-73
2023/04/28 10:32:24;;;;;;;6.07;2.83;;;;;;;14.97;28.82;95050.88;5073220;28;20033;-73
2023/04/28 10:34:51;;;;;;;6.18;2.40;;;;;;;15.02;26.46;95048.66;5073076;28;20047;-73
2023/04/28 10:37:19;;;;;;;4.38;2.47;;;;;;;15.01;27.72;95046.97;5074182;28;20067;-72
2023/04/28 10:40:22;;;;;;;3.58;2.33;;;;;;;15.05;26.99;95040.50;5074135;28;20055;-73
2023/04/28 10:42:51;;;;;;;5.32;2.42;;;;;;;15.07;27.24;95022.03;5074122;28;20072;-73
2023/04/28 10:45:52;;;;;;;5.32;2.85;;;;;;;15.23;26.71;95024.78;5036961;28;20056;-72
2023/04/28 10:48:25;;;;;;;5.20;2.60;;;;;;;15.20;25.80;95022.47;5054219;28;20100;-72
2023/04/28 10:51:14;;;;;;;5.22;2.40;;;;;;;15.18;25.14;95016.56;5052892;28;20635;-72
2023/04/28 10:53:46;;;;;;;3.78;2.40;;;;;;;15.21;26.14;95021.53;5046272;28;20558;-73
2023/04/28 10:56:24;;;;;;;3.30;2.30;;;;;;;15.18;25.32;95027.88;5053742;28;20102;-73
2023/04/28 10:58:56;;;;;;;6.57;2.80;;;;;;;15.19;27.98;95021.66;5037678;28;20491;-72
2023/04/28 11:01:23;;;;;;;5.53;2.30;;;;;;;15.29;27.02;95018.13;5053671;28;20040;-73
2023/04/28 11:04:06;;;;;;;3.95;2.45;;;;;;;15.32;25.95;95023.06;5069577;28;20041;-72
2023/04/28 11:06:35;;;;;;;4.30;2.67;;;;;;;15.22;27.31;95007.44;5066855;28;20495;-73
2023/04/28 11:09:13;;;;;;;8.13;2.50;;;;;;;15.24;27.84;95010.75;5052487;28;20039;-73
2023/04/28 11:12:10;;;;;;;3.42;2.47;;;;;;;15.25;27.40;95007.16;5053669;28;20041;-73
2023/04/28 11:14:41;;;;;;;3.80;2.30;;;;;;;14.44;26.16;94997.50;5055878;28;20529;-72
2023/04/28 11:17:12;;;;;;;3.65;2.10;;;;;;;14.93;25.56;95003.28;5067344;28;20036;-72
2023/04/28 11:19:42;;;;;;;3.67;2.20;;;;;;;14.93;26.69;94992.81;5054126;28;20035;-73
2023/04/28 11:22:17;;;;;;;5.03;2.40;;;;;;;15.04;26.97;94994.34;5063039;28;20033;-73
2023/04/28 11:25:01;;;;;;;2.97;2.00;;;;;;;15.12;27.63;94985.78;5053544;28;20040;-72
2023/04/28 11:27:28;;;;;;;6.70;3.00;;;;;;;15.25;27.80;94995.88;5054238;28;20033;-72
2023/04/28 11:29:54;;;;;;;6.28;3.00;;;;;;;15.03;26.62;94961.34;5065364;28;20029;-73
2023/04/28 11:32:30;;;;;;;5.90;2.17;;;;;;;15.25;26.54;94986.22;5062252;28;20086;-73
2023/04/28 11:34:55;;;;;;;8.35;2.40;;;;;;;15.29;26.94;94981.50;5052289;28;20085;-74